Time;durP1;ratioP1;P1;durP2;ratioP2;P2;SDS_P1;SDS_P2;PMS_P1;PMS_P2;Temp;Humidity;BMP_temperature;BMP_pressure;BME280_temperature;BME280_humidity;BME280_pressure;Samples;Min_cycle;Max_cycle;Signal;HPM_P1;HPM_P2
2022/10/04 00:00:48;;;;;;;2.70;1.95;;;11.20;99.90;;;;;;4915320;29;20040;-68
2022/10/04 00:03:34;;;;;;;4.25;2.28;;;11.10;99.90;;;;;;4903183;29;20048;-69
2022/10/04 00:06:02;;;;;;;6.10;2.50;;;11.10;99.90;;;;;;4914704;29;20118;-68
2022/10/04 00:08:29;;;;;;;6.30;2.25;;;11.10;99.90;;;;;;4945052;28;20051;-69
2022/10/04 00:11:03;;;;;;;11.10;2.38;;;11.10;99.90;;;;;;4972585;28;20033;-68
2022/10/04 00:13:31;;;;;;;4.18;2.00;;;11.00;99.90;;;;;;4975727;28;20057;-67
2022/10/04 00:15:57;;;;;;;5.20;2.13;;;11.00;99.90;;;;;;5013411;28;20042;-69
2022/10/04 00:18:58;;;;;;;5.18;2.30;;;11.00;99.90;;;;;;5028973;28;20121;-69
2022/10/04 00:21:53;;;;;;;10.07;2.75;;;11.00;99.90;;;;;;5029014;28;20041;-68
2022/10/04 00:24:30;;;;;;;5.10;1.95;;;10.90;99.90;;;;;;5015506;28;20045;-68
2022/10/04 00:27:29;;;;;;;3.40;1.88;;;10.90;99.90;;;;;;5033232;28;20112;-67
2022/10/04 00:30:03;;;;;;;3.80;2.05;;;10.80;99.90;;;;;;5011068;28;20029;-69
2022/10/04 00:32:40;;;;;;;2.75;2.10;;;10.80;99.90;;;;;;5011049;28;20033;-69
2022/10/04 00:35:24;;;;;;;4.28;2.08;;;10.80;99.90;;;;;;5010930;28;20034;-68
2022/10/04 00:37:57;;;;;;;7.25;2.47;;;10.70;99.90;;;;;;5011049;28;20124;-69
2022/10/04 00:40:29;;;;;;;4.30;2.00;;;10.70;99.90;;;;;;5010537;28;20095;-68
2022/10/04 00:43:02;;;;;;;4.75;2.92;;;10.60;99.90;;;;;;5011209;28;20037;-68
2022/10/04 00:45:42;;;;;;;4.10;2.30;;;10.60;99.90;;;;;;5010469;28;20077;-67
2022/10/04 00:48:07;;;;;;;4.00;2.38;;;10.60;99.90;;;;;;5010878;28;20040;-68
2022/10/04 00:50:38;;;;;;;6.60;2.30;;;10.50;99.90;;;;;;5010870;28;20112;-68
2022/10/04 00:53:32;;;;;;;3.10;2.45;;;10.60;99.90;;;;;;5006395;28;20137;-68
2022/10/04 00:56:03;;;;;;;11.45;2.70;;;10.50;99.90;;;;;;5007670;28;20040;-62
2022/10/04 00:58:37;;;;;;;7.07;2.75;;;10.50;99.90;;;;;;5010516;28;20042;-69
2022/10/04 01:01:03;;;;;;;3.50;2.22;;;10.40;99.90;;;;;;5010526;28;20040;-67
2022/10/04 01:03:35;;;;;;;8.45;2.47;;;10.40;99.90;;;;;;4997427;28;20503;-68
2022/10/04 01:06:05;;;;;;;4.65;2.30;;;10.40;99.90;;;;;;5021903;28;20084;-68
2022/10/04 01:08:35;;;;;;;2.75;1.80;;;10.40;99.90;;;;;;5038599;28;20033;-69
2022/10/04 01:11:17;;;;;;;5.40;2.45;;;10.40;99.90;;;;;;5014491;28;20125;-69
2022/10/04 01:13:58;;;;;;;3.22;2.00;;;10.30;99.90;;;;;;5032190;28;20068;-69
2022/10/04 01:16:28;;;;;;;6.20;2.00;;;10.30;99.90;;;;;;5032050;28;20490;-68
2022/10/04 01:18:55;;;;;;;3.53;2.10;;;10.30;99.90;;;;;;5018126;28;20033;-69
2022/10/04 01:21:30;;;;;;;3.53;1.80;;;10.30;99.90;;;;;;5031910;28;20103;-69
2022/10/04 01:23:56;;;;;;;3.55;1.95;;;10.20;99.90;;;;;;5026840;28;20468;-68
2022/10/04 01:26:28;;;;;;;3.90;2.10;;;10.30;99.90;;;;;;5032535;28;20028;-68
2022/10/04 01:28:57;;;;;;;2.60;1.65;;;10.20;99.90;;;;;;5031759;28;20030;-69
2022/10/04 01:31:28;;;;;;;4.63;2.13;;;10.20;99.90;;;;;;5032206;28;20064;-68
2022/10/04 01:33:54;;;;;;;4.38;2.03;;;10.10;99.90;;;;;;5036359;28;20068;-68
2022/10/04 01:36:21;;;;;;;7.07;2.30;;;10.10;99.90;;;;;;5036725;28;20027;-68
2022/10/04 01:38:47;;;;;;;5.68;2.80;;;10.10;99.90;;;;;;5036176;28;20029;-63
2022/10/04 01:41:28;;;;;;;3.88;2.55;;;10.10;99.90;;;;;;5035523;28;20112;-69
2022/10/04 01:43:59;;;;;;;3.95;2.28;;;10.00;99.90;;;;;;5035863;28;20053;-69
2022/10/04 01:46:38;;;;;;;7.35;2.05;;;10.00;99.90;;;;;;5026392;28;20025;-67
2022/10/04 01:49:13;;;;;;;8.43;2.47;;;10.00;99.90;;;;;;5035803;28;20468;-68
2022/10/04 01:51:48;;;;;;;5.32;2.10;;;10.00;99.90;;;;;;5035530;28;20072;-68
2022/10/04 01:54:18;;;;;;;4.35;1.63;;;9.90;99.90;;;;;;5032769;28;20061;-69
2022/10/04 01:56:59;;;;;;;2.55;1.85;;;9.90;99.90;;;;;;5035527;28;20025;-67
2022/10/04 01:59:39;;;;;;;5.35;2.25;;;10.00;99.90;;;;;;5031831;28;20021;-68
2022/10/04 02:02:14;;;;;;;8.98;2.58;;;10.00;99.90;;;;;;5040678;28;20041;-69
2022/10/04 02:04:41;;;;;;;5.07;2.33;;;9.90;99.90;;;;;;5035619;28;20076;-68
2022/10/04 02:07:14;;;;;;;8.25;3.17;;;9.90;99.90;;;;;;5042524;28;20049;-69
2022/10/04 02:09:44;;;;;;;5.35;2.65;;;9.90;99.90;;;;;;5041414;28;20025;-67
2022/10/04 02:12:17;;;;;;;4.90;2.08;;;9.90;99.90;;;;;;5035628;28;20103;-68
2022/10/04 02:14:51;;;;;;;4.72;2.33;;;9.80;99.90;;;;;;5035536;28;20032;-66
2022/10/04 02:17:20;;;;;;;4.85;2.40;;;9.80;99.90;;;;;;5022265;28;20491;-68
2022/10/04 02:19:47;;;;;;;4.32;1.98;;;9.80;99.90;;;;;;5035500;28;20097;-69
2022/10/04 02:22:14;;;;;;;3.70;2.20;;;9.80;99.90;;;;;;5035607;28;20053;-69
2022/10/04 02:24:43;;;;;;;7.80;3.05;;;9.80;99.90;;;;;;5035550;28;20022;-68
2022/10/04 02:27:10;;;;;;;5.18;2.40;;;9.80;99.90;;;;;;5035488;28;20025;-68
2022/10/04 02:29:36;;;;;;;5.05;2.25;;;9.80;99.90;;;;;;5035442;28;20017;-68
2022/10/04 02:34:53;;;;;;;4.65;2.17;;;9.80;99.90;;;;;;5034756;28;20036;-68
2022/10/04 02:37:25;;;;;;;4.80;2.67;;;9.80;99.90;;;;;;5034833;28;20069;-69
2022/10/04 02:40:07;;;;;;;4.93;2.13;;;9.90;99.90;;;;;;5034913;28;20392;-68
2022/10/04 02:42:39;;;;;;;8.55;2.58;;;9.90;99.90;;;;;;5034541;28;20044;-63
2022/10/04 02:45:15;;;;;;;5.32;2.17;;;9.90;99.90;;;;;;5033906;28;20013;-69
2022/10/04 02:47:50;;;;;;;6.15;2.33;;;9.90;99.90;;;;;;5034678;28;20165;-68
2022/10/04 02:50:34;;;;;;;3.40;2.20;;;10.00;99.90;;;;;;5034659;28;20426;-68
2022/10/04 02:53:25;;;;;;;7.25;2.88;;;10.00;99.90;;;;;;5028731;28;20029;-69
2022/10/04 02:55:53;;;;;;;4.47;2.35;;;9.90;99.90;;;;;;5034327;28;20025;-68
2022/10/04 02:58:22;;;;;;;7.00;2.03;;;9.90;99.90;;;;;;5034205;28;20037;-68
2022/10/04 03:00:56;;;;;;;3.47;2.35;;;9.90;99.90;;;;;;5034536;28;20521;-67
2022/10/04 03:03:22;;;;;;;2.85;1.73;;;9.90;99.90;;;;;;5034518;28;20021;-68
2022/10/04 03:06:00;;;;;;;5.45;2.13;;;9.90;99.90;;;;;;5034024;28;20076;-68
2022/10/04 03:08:29;;;;;;;8.18;2.50;;;9.90;99.90;;;;;;5039176;28;20063;-69
2022/10/04 03:10:58;;;;;;;6.07;1.95;;;9.90;99.90;;;;;;5034488;28;20037;-68
2022/10/04 03:13:25;;;;;;;2.80;1.77;;;9.90;99.90;;;;;;5034524;28;20152;-68
2022/10/04 03:15:51;;;;;;;4.78;2.10;;;9.90;99.90;;;;;;5033290;28;20033;-68
2022/10/04 03:18:19;;;;;;;5.30;2.20;;;9.90;99.90;;;;;;5033979;28;20029;-68
2022/10/04 03:20:45;;;;;;;3.72;1.83;;;9.90;99.90;;;;;;5034343;28;20029;-68
2022/10/04 03:23:14;;;;;;;6.38;2.40;;;9.90;99.90;;;;;;5034047;28;20796;-68
2022/10/04 03:25:50;;;;;;;5.80;2.58;;;9.90;99.90;;;;;;5034279;28;20025;-67
2022/10/04 03:28:16;;;;;;;4.47;1.75;;;9.80;99.90;;;;;;5033600;28;20033;-68
2022/10/04 03:30:44;;;;;;;4.90;2.70;;;9.90;99.90;;;;;;5033825;28;20032;-68
2022/10/04 03:33:19;;;;;;;6.43;2.13;;;9.90;99.90;;;;;;5033930;28;20036;-68
2022/10/04 03:35:49;;;;;;;6.90;2.47;;;9.80;99.90;;;;;;5033450;28;20029;-68
2022/10/04 03:38:16;;;;;;;4.70;1.90;;;9.80;99.90;;;;;;5034021;28;20486;-68
2022/10/04 03:40:50;;;;;;;4.55;2.40;;;9.70;99.90;;;;;;5033430;28;20507;-68
2022/10/04 03:43:16;;;;;;;4.18;2.67;;;9.70;99.90;;;;;;5033316;28;20034;-68
2022/10/04 03:45:42;;;;;;;4.15;2.13;;;9.70;99.90;;;;;;5032858;28;20025;-68
2022/10/04 03:48:13;;;;;;;4.68;2.63;;;9.70;99.90;;;;;;5033153;28;20030;-66
2022/10/04 03:50:45;;;;;;;6.07;2.50;;;9.70;99.90;;;;;;5033438;28;20033;-69
2022/10/04 03:53:31;;;;;;;6.50;2.22;;;9.70;99.90;;;;;;5033707;28;20472;-68
2022/10/04 03:55:58;;;;;;;5.45;2.67;;;9.60;99.90;;;;;;5032935;28;20404;-68
2022/10/04 03:58:27;;;;;;;4.35;2.15;;;9.60;99.90;;;;;;5033475;28;20101;-68
2022/10/04 04:00:59;;;;;;;4.43;2.03;;;9.60;99.90;;;;;;5031753;28;20127;-68
2022/10/04 04:03:28;;;;;;;6.28;2.55;;;9.60;99.90;;;;;;5033067;28;20032;-69
2022/10/04 04:05:59;;;;;;;6.32;2.88;;;9.60;99.90;;;;;;5032757;28;20025;-69
2022/10/04 04:08:36;;;;;;;5.45;2.63;;;9.50;99.90;;;;;;5047123;28;20029;-69
2022/10/04 04:11:05;;;;;;;5.85;2.88;;;9.50;99.90;;;;;;5033282;28;20785;-68
2022/10/04 04:13:55;;;;;;;4.97;2.15;;;9.60;99.90;;;;;;5033099;28;20060;-68
2022/10/04 04:16:27;;;;;;;5.53;2.28;;;9.60;99.90;;;;;;5033056;28;20029;-68
2022/10/04 04:18:57;;;;;;;4.72;2.38;;;9.60;99.90;;;;;;5032516;28;20091;-68
2022/10/04 04:21:25;;;;;;;4.80;2.53;;;9.60;99.90;;;;;;5033077;28;20045;-68
2022/10/04 04:24:01;;;;;;;8.82;2.92;;;9.60;99.90;;;;;;5032690;28;20026;-68
2022/10/04 04:26:36;;;;;;;5.90;2.78;;;9.60;99.90;;;;;;5032928;28;20492;-68
2022/10/04 04:29:04;;;;;;;6.00;2.97;;;9.50;99.90;;;;;;5032589;28;20034;-68
2022/10/04 04:31:37;;;;;;;5.82;2.63;;;9.50;99.90;;;;;;5032462;28;20026;-68
2022/10/04 04:34:14;;;;;;;5.22;2.97;;;9.50;99.90;;;;;;5031563;28;20068;-68
2022/10/04 04:36:40;;;;;;;6.60;3.90;;;9.50;99.90;;;;;;5025141;28;20029;-68
2022/10/04 04:39:33;;;;;;;5.43;2.53;;;9.50;99.90;;;;;;5030727;28;20030;-68
2022/10/04 04:42:20;;;;;;;5.65;2.70;;;9.50;99.90;;;;;;5030190;28;20041;-67
2022/10/04 04:44:59;;;;;;;4.65;3.08;;;9.50;99.90;;;;;;5027663;28;20032;-68
2022/10/04 04:47:32;;;;;;;7.22;3.22;;;9.50;99.90;;;;;;5029502;28;20030;-69
2022/10/04 04:50:07;;;;;;;7.95;2.58;;;9.60;99.90;;;;;;5031026;28;20387;-67
2022/10/04 04:52:34;;;;;;;6.40;2.67;;;9.60;99.90;;;;;;5030917;28;20033;-65
2022/10/04 04:55:01;;;;;;;6.22;2.72;;;9.60;99.90;;;;;;5031374;28;20025;-68
2022/10/04 04:57:27;;;;;;;3.80;2.03;;;9.60;99.90;;;;;;5032649;28;20428;-66
2022/10/04 04:59:57;;;;;;;3.45;2.30;;;9.70;99.90;;;;;;5030880;28;20029;-67
2022/10/04 05:02:33;;;;;;;6.95;2.97;;;9.80;99.90;;;;;;5032104;28;20029;-68
2022/10/04 05:05:19;;;;;;;4.05;2.67;;;10.30;99.90;;;;;;5032026;28;20031;-68
2022/10/04 05:07:46;;;;;;;3.90;2.67;;;10.90;99.90;;;;;;5043572;28;20443;-67
2022/10/04 05:10:26;;;;;;;4.60;2.28;;;11.30;99.90;;;;;;5033624;28;20080;-68
2022/10/04 05:12:52;;;;;;;3.20;2.20;;;11.80;99.90;;;;;;5031999;28;20029;-67
2022/10/04 05:15:18;;;;;;;8.82;2.78;;;11.80;99.90;;;;;;5032256;28;20028;-68
2022/10/04 05:17:44;;;;;;;4.75;3.08;;;11.90;99.90;;;;;;5031868;28;20033;-68
2022/10/04 05:20:12;;;;;;;3.30;2.60;;;12.30;99.90;;;;;;5031519;28;20041;-67
2022/10/04 05:22:41;;;;;;;5.82;3.00;;;12.40;99.90;;;;;;5032595;28;20026;-68
2022/10/04 05:25:24;;;;;;;4.93;2.88;;;12.80;99.90;;;;;;5031637;28;20140;-68
2022/10/04 05:27:50;;;;;;;10.32;3.15;;;13.20;99.90;;;;;;5031678;28;20041;-69
2022/10/04 05:30:24;;;;;;;4.63;2.90;;;13.60;99.90;;;;;;5031780;28;20030;-67
2022/10/04 05:33:05;;;;;;;5.47;2.90;;;13.80;99.90;;;;;;5031371;28;20092;-68
2022/10/04 05:35:54;;;;;;;8.52;3.13;;;13.90;99.90;;;;;;5031385;28;20490;-68
2022/10/04 05:38:48;;;;;;;9.20;3.15;;;14.20;99.90;;;;;;5032255;28;20040;-68
2022/10/04 05:41:16;;;;;;;9.20;2.80;;;14.40;99.90;;;;;;5031626;28;20038;-68
2022/10/04 05:43:50;;;;;;;8.13;3.03;;;14.40;99.90;;;;;;5031623;28;20372;-68
2022/10/04 05:46:27;;;;;;;8.95;3.20;;;14.80;99.90;;;;;;5032582;28;20368;-68
2022/10/04 05:49:14;;;;;;;8.88;3.25;;;14.90;99.90;;;;;;5031571;28;20025;-68
2022/10/04 05:51:59;;;;;;;5.97;2.70;;;15.10;99.90;;;;;;5031147;28;20379;-68
2022/10/04 05:54:32;;;;;;;9.20;2.45;;;14.90;99.90;;;;;;5031765;28;20024;-67
2022/10/04 05:57:29;;;;;;;5.57;2.65;;;14.90;99.90;;;;;;5031854;28;20021;-68
2022/10/04 06:00:06;;;;;;;7.43;2.72;;;14.60;99.90;;;;;;5020556;28;20033;-68
2022/10/04 06:02:41;;;;;;;4.25;2.63;;;13.60;99.90;;;;;;5031227;28;20388;-68
2022/10/04 06:05:25;;;;;;;5.35;2.30;;;13.20;99.90;;;;;;5031748;28;20487;-68
2022/10/04 06:08:20;;;;;;;8.75;2.20;;;12.90;99.90;;;;;;5044219;28;20126;-68
2022/10/04 06:11:14;;;;;;;13.35;2.28;;;12.80;99.90;;;;;;5031397;28;20065;-68
2022/10/04 06:13:58;;;;;;;4.82;3.00;;;12.70;99.90;;;;;;5031483;28;20025;-67
2022/10/04 06:17:08;;;;;;;5.22;2.53;;;12.70;99.90;;;;;;5031711;28;20025;-68
2022/10/04 06:19:55;;;;;;;5.35;2.95;;;12.70;99.90;;;;;;5034770;28;20029;-68
2022/10/04 06:22:25;;;;;;;7.78;2.85;;;12.80;99.90;;;;;;5035262;28;20028;-68
2022/10/04 06:25:04;;;;;;;4.78;2.05;;;12.80;99.90;;;;;;5035106;28;20040;-67
2022/10/04 06:27:35;;;;;;;4.47;2.50;;;12.90;99.90;;;;;;5035045;28;20527;-68
2022/10/04 06:30:11;;;;;;;7.60;2.85;;;13.00;99.90;;;;;;5035072;28;20112;-67
2022/10/04 06:33:21;;;;;;;5.63;2.80;;;13.00;99.90;;;;;;5035133;28;20372;-68
2022/10/04 06:36:08;;;;;;;4.63;2.58;;;13.00;99.90;;;;;;5035028;28;20061;-68
2022/10/04 06:38:51;;;;;;;5.18;2.72;;;13.20;99.90;;;;;;5035078;28;20334;-68
2022/10/04 06:41:23;;;;;;;7.15;2.72;;;13.20;99.90;;;;;;5023013;28;20047;-67
2022/10/04 06:43:58;;;;;;;7.45;3.00;;;13.40;99.90;;;;;;5034268;28;20033;-68
2022/10/04 06:46:48;;;;;;;2.90;2.03;;;13.50;99.90;;;;;;5034827;28;20049;-68
2022/10/04 06:50:00;;;;;;;8.07;2.78;;;13.70;99.90;;;;;;5034483;28;20050;-68
2022/10/04 06:52:49;;;;;;;8.10;2.47;;;13.80;99.90;;;;;;5033955;28;20038;-67
2022/10/04 06:55:33;;;;;;;6.47;2.58;;;14.00;99.90;;;;;;5034389;28;20028;-68
2022/10/04 06:58:08;;;;;;;5.70;2.30;;;14.00;99.90;;;;;;5034566;28;20045;-68
2022/10/04 07:01:02;;;;;;;10.48;3.35;;;14.20;99.90;;;;;;5034627;28;20129;-67
2022/10/04 07:03:46;;;;;;;5.47;2.90;;;14.40;99.90;;;;;;5034570;28;20033;-68
2022/10/04 07:06:12;;;;;;;4.95;2.30;;;14.60;99.90;;;;;;5033782;28;20042;-69
2022/10/04 07:08:50;;;;;;;6.05;2.38;;;14.60;99.90;;;;;;5047898;28;20065;-68
2022/10/04 07:11:31;;;;;;;4.50;2.03;;;14.80;99.90;;;;;;5033720;28;20468;-68
2022/10/04 07:14:05;;;;;;;5.28;2.92;;;14.90;99.90;;;;;;5021062;28;20018;-68
2022/10/04 07:16:42;;;;;;;6.70;2.67;;;14.90;99.90;;;;;;5032721;28;20076;-68
2022/10/04 07:19:26;;;;;;;3.58;2.17;;;15.00;99.90;;;;;;5033468;28;20083;-67
2022/10/04 07:22:09;;;;;;;2.10;1.73;;;15.00;99.90;;;;;;5033775;28;20033;-68
2022/10/04 07:24:49;;;;;;;6.80;2.03;;;15.10;99.90;;;;;;5034081;28;20033;-68
2022/10/04 07:27:41;;;;;;;6.22;2.20;;;15.20;99.90;;;;;;5033966;28;20021;-67
2022/10/04 07:30:16;;;;;;;4.68;2.00;;;15.20;99.90;;;;;;5032982;28;20025;-68
2022/10/04 07:32:50;;;;;;;5.43;1.75;;;15.30;99.90;;;;;;5033886;28;20025;-68
2022/10/04 07:35:34;;;;;;;3.75;1.67;;;15.40;99.90;;;;;;5033784;28;20064;-67
2022/10/04 07:38:18;;;;;;;4.20;1.90;;;15.40;99.90;;;;;;5033624;28;20045;-67
2022/10/04 07:41:09;;;;;;;4.65;1.67;;;15.60;99.90;;;;;;5033731;28;20041;-68
2022/10/04 07:44:03;;;;;;;4.15;1.67;;;15.80;99.90;;;;;;5033676;28;20025;-69
2022/10/04 07:46:43;;;;;;;8.25;2.55;;;15.70;99.90;;;;;;5026192;28;20049;-68
2022/10/04 07:49:18;;;;;;;4.82;2.10;;;15.80;99.90;;;;;;5033869;28;20018;-68
2022/10/04 07:51:55;;;;;;;2.80;1.48;;;16.10;99.90;;;;;;5033571;28;20036;-68
2022/10/04 07:54:35;;;;;;;3.58;1.55;;;16.10;99.90;;;;;;5033413;28;20103;-69
2022/10/04 07:57:08;;;;;;;4.65;1.50;;;16.00;99.90;;;;;;5032286;28;20385;-68
2022/10/04 07:59:37;;;;;;;3.75;1.73;;;16.10;99.90;;;;;;5032673;28;20034;-68
2022/10/04 08:02:05;;;;;;;4.05;1.85;;;16.20;99.90;;;;;;5033364;28;20037;-68
2022/10/04 08:04:50;;;;;;;3.72;1.50;;;16.20;99.90;;;;;;5033109;28;20468;-68
2022/10/04 08:07:30;;;;;;;2.78;1.70;;;16.20;99.90;;;;;;5041339;28;20072;-68
2022/10/04 08:10:12;;;;;;;2.22;1.48;;;16.30;99.90;;;;;;5036818;28;20043;-68
2022/10/04 08:12:52;;;;;;;4.55;1.25;;;16.20;99.90;;;;;;5033070;28;20113;-69
2022/10/04 08:15:39;;;;;;;1.52;1.27;;;16.30;99.90;;;;;;5033130;28;20029;-69
2022/10/04 08:18:26;;;;;;;2.92;1.70;;;16.30;99.90;;;;;;5033108;28;20077;-67
2022/10/04 08:20:59;;;;;;;3.75;1.48;;;16.30;99.90;;;;;;5032875;28;20502;-69
2022/10/04 08:23:43;;;;;;;6.10;1.42;;;16.30;99.90;;;;;;5032588;28;20017;-68
2022/10/04 08:26:39;;;;;;;2.72;1.40;;;16.30;99.90;;;;;;5033116;28;20068;-68
2022/10/04 08:29:43;;;;;;;3.33;1.13;;;16.40;99.90;;;;;;5032372;28;20026;-68
2022/10/04 08:32:37;;;;;;;2.47;1.20;;;16.40;99.90;;;;;;4952343;29;20102;-68
2022/10/04 08:35:33;;;;;;;5.28;1.88;;;16.50;99.90;;;;;;4952530;29;20040;-68
2022/10/04 08:38:41;;;;;;;4.47;1.60;;;16.60;99.90;;;;;;4952676;29;20039;-68
2022/10/04 08:41:23;;;;;;;2.50;1.48;;;16.80;99.90;;;;;;4913827;29;20047;-68
2022/10/04 08:44:13;;;;;;;4.53;1.45;;;17.00;99.90;;;;;;4915179;29;20048;-69
2022/10/04 08:47:04;;;;;;;3.60;1.42;;;16.90;99.90;;;;;;4923111;29;20139;-69
2022/10/04 08:50:03;;;;;;;2.70;1.17;;;16.80;99.90;;;;;;4913903;29;20123;-68
2022/10/04 08:52:43;;;;;;;2.75;1.20;;;16.80;99.90;;;;;;4913866;29;20039;-69
2022/10/04 08:55:24;;;;;;;3.13;1.30;;;17.00;99.90;;;;;;4914122;29;20075;-68
2022/10/04 08:58:04;;;;;;;3.78;1.17;;;17.20;99.90;;;;;;4913949;29;20144;-68
2022/10/04 09:01:09;;;;;;;3.80;1.15;;;17.40;99.90;;;;;;4914033;29;20042;-68
2022/10/04 09:04:21;;;;;;;4.43;1.27;;;17.00;99.90;;;;;;4876379;29;20350;-69
2022/10/04 09:07:06;;;;;;;3.25;1.30;;;16.80;99.90;;;;;;4861377;29;20124;-68
2022/10/04 09:10:05;;;;;;;3.30;1.90;;;16.70;99.90;;;;;;4896215;29;20040;-68
2022/10/04 09:13:07;;;;;;;3.28;1.48;;;17.00;99.90;;;;;;4898097;29;20129;-68
2022/10/04 09:15:52;;;;;;;2.85;1.50;;;17.00;99.90;;;;;;4939820;29;20043;-68
2022/10/04 09:18:50;;;;;;;2.97;1.20;;;17.10;99.90;;;;;;4951745;28;20043;-68
2022/10/04 09:21:27;;;;;;;5.22;1.80;;;16.90;99.90;;;;;;4939762;29;20115;-68
2022/10/04 09:24:27;;;;;;;2.70;1.23;;;16.80;99.90;;;;;;4952033;29;20032;-68
2022/10/04 09:27:33;;;;;;;2.65;1.60;;;16.90;99.90;;;;;;4952272;28;20126;-68
2022/10/04 09:30:40;;;;;;;3.45;1.70;;;17.30;99.90;;;;;;4940841;29;20208;-64
2022/10/04 09:33:17;;;;;;;3.33;1.50;;;17.30;99.90;;;;;;4921725;29;20110;-65
2022/10/04 09:35:49;;;;;;;2.65;1.30;;;17.40;99.90;;;;;;4932673;29;20495;-68
2022/10/04 09:38:17;;;;;;;2.90;1.70;;;17.30;99.90;;;;;;4932593;29;20062;-65
2022/10/04 09:41:10;;;;;;;6.10;2.10;;;17.10;99.90;;;;;;4953288;28;20121;-68
2022/10/04 09:44:16;;;;;;;3.45;1.17;;;17.10;99.90;;;;;;4970616;28;20053;-67
2022/10/04 09:46:50;;;;;;;2.80;1.52;;;16.90;99.90;;;;;;4960048;28;20063;-64
2022/10/04 09:49:31;;;;;;;2.50;1.42;;;17.30;99.90;;;;;;4970753;28;20122;-64
2022/10/04 09:52:00;;;;;;;2.83;1.20;;;17.40;99.90;;;;;;4970616;28;20121;-68
2022/10/04 09:54:37;;;;;;;2.20;1.27;;;17.30;99.90;;;;;;4973531;28;20042;-68
2022/10/04 09:57:16;;;;;;;2.63;1.38;;;17.20;99.90;;;;;;4975155;28;20473;-67
2022/10/04 09:59:56;;;;;;;3.83;1.45;;;17.30;99.90;;;;;;4974503;28;20038;-64
2022/10/04 10:02:33;;;;;;;6.38;1.70;;;17.60;99.90;;;;;;4974631;28;20114;-68
2022/10/04 10:05:26;;;;;;;7.63;1.88;;;18.00;99.90;;;;;;4974205;28;20551;-64
2022/10/04 10:08:10;;;;;;;4.80;1.58;;;18.00;99.90;;;;;;5036964;28;20460;-65
2022/10/04 10:14:32;;;;;;;5.22;1.38;;;17.90;99.90;;;;;;5035523;28;20034;-69
2022/10/04 10:17:14;;;;;;;3.65;1.30;;;18.10;99.90;;;;;;5027592;28;20113;-68
2022/10/04 10:19:49;;;;;;;2.60;0.90;;;18.20;99.90;;;;;;5035081;28;20029;-68
2022/10/04 10:22:14;;;;;;;1.00;0.70;;;18.10;99.90;;;;;;5035032;28;20115;-69
2022/10/04 10:25:11;;;;;;;1.70;0.90;;;18.00;99.90;;;;;;5034912;28;20476;-68
2022/10/04 10:27:48;;;;;;;5.88;1.40;;;18.10;99.90;;;;;;5034749;28;20021;-68
2022/10/04 10:30:31;;;;;;;2.65;1.27;;;18.10;99.90;;;;;;5034560;28;20476;-69
2022/10/04 10:33:42;;;;;;;2.13;1.15;;;18.10;99.90;;;;;;5035073;28;20040;-69
2022/10/04 10:36:20;;;;;;;4.20;1.45;;;18.00;99.90;;;;;;5035311;28;20037;-68
2022/10/04 10:39:07;;;;;;;3.53;1.42;;;17.70;99.90;;;;;;5034899;28;20041;-67
2022/10/04 10:41:57;;;;;;;2.92;1.10;;;17.70;99.90;;;;;;5033759;28;20037;-68
2022/10/04 10:44:40;;;;;;;6.82;1.10;;;18.00;99.90;;;;;;5034849;28;20490;-67
2022/10/04 10:47:25;;;;;;;3.20;1.20;;;18.00;99.90;;;;;;5034899;28;20472;-68
2022/10/04 10:50:12;;;;;;;2.92;0.90;;;17.90;99.90;;;;;;5034542;28;20039;-69
2022/10/04 10:52:54;;;;;;;3.33;1.20;;;17.90;99.90;;;;;;5034901;28;20052;-69
2022/10/04 10:55:57;;;;;;;3.50;1.17;;;17.70;99.90;;;;;;5016927;28;20068;-68
2022/10/04 10:58:43;;;;;;;4.07;1.33;;;17.50;99.90;;;;;;5034472;28;20083;-69
2022/10/04 11:01:17;;;;;;;4.57;1.00;;;17.50;99.90;;;;;;5034295;28;20063;-68
2022/10/04 11:03:54;;;;;;;2.08;1.30;;;17.40;99.90;;;;;;5034574;28;20383;-69
2022/10/04 11:06:58;;;;;;;3.55;1.17;;;17.40;99.90;;;;;;5034148;28;20396;-69
2022/10/04 11:09:42;;;;;;;2.10;1.17;;;17.20;99.90;;;;;;5042604;28;20051;-68
2022/10/04 11:12:20;;;;;;;2.72;1.13;;;17.10;99.90;;;;;;5034588;28;20029;-69
2022/10/04 11:15:24;;;;;;;3.05;1.25;;;17.40;99.90;;;;;;5034388;28;20033;-69
2022/10/04 11:18:12;;;;;;;1.30;0.70;;;17.80;99.90;;;;;;5034236;28;20419;-68
2022/10/04 11:21:15;;;;;;;1.90;1.15;;;18.00;99.90;;;;;;5034151;28;20029;-68
2022/10/04 11:24:13;;;;;;;2.72;1.17;;;18.10;99.90;;;;;;5034638;28;20368;-69
2022/10/04 11:26:59;;;;;;;2.97;1.38;;;17.90;99.90;;;;;;5034140;28;20426;-69
2022/10/04 11:29:31;;;;;;;4.30;1.98;;;17.80;99.90;;;;;;5033979;28;20105;-68
2022/10/04 11:32:00;;;;;;;2.40;1.25;;;18.00;99.90;;;;;;5034107;28;20053;-69
2022/10/04 11:34:47;;;;;;;4.20;1.40;;;18.10;99.90;;;;;;5034028;28;20025;-68
2022/10/04 11:37:18;;;;;;;2.65;1.52;;;18.40;99.90;;;;;;5034007;28;20030;-69
2022/10/04 11:40:06;;;;;;;4.87;1.67;;;18.30;99.90;;;;;;5033943;28;20028;-69
2022/10/04 11:43:10;;;;;;;2.90;1.08;;;18.40;99.90;;;;;;5033901;28;20362;-68
2022/10/04 11:45:42;;;;;;;1.80;1.13;;;18.50;99.90;;;;;;4953071;28;20035;-68
2022/10/04 11:48:13;;;;;;;2.45;1.35;;;18.50;99.90;;;;;;4953387;28;20049;-68
2022/10/04 11:51:01;;;;;;;2.10;1.10;;;18.50;99.90;;;;;;4953201;28;20110;-68
2022/10/04 11:53:46;;;;;;;2.72;1.50;;;18.80;99.90;;;;;;4953255;28;20035;-69
2022/10/04 11:56:18;;;;;;;1.27;0.90;;;19.00;99.90;;;;;;4953033;28;20031;-69
2022/10/04 11:59:26;;;;;;;2.17;0.73;;;19.00;99.90;;;;;;4953500;28;20147;-68
2022/10/04 12:02:15;;;;;;;2.00;1.25;;;18.90;99.90;;;;;;4914734;29;20047;-68
2022/10/04 12:05:03;;;;;;;1.77;1.20;;;18.50;99.90;;;;;;4914549;29;20047;-69
2022/10/04 12:07:54;;;;;;;4.88;1.30;;;18.50;99.90;;;;;;4914095;29;20056;-68
2022/10/04 12:10:39;;;;;;;4.18;1.45;;;18.40;99.90;;;;;;4914823;29;20043;-68
2022/10/04 12:13:37;;;;;;;1.15;1.05;;;18.30;99.90;;;;;;4914963;29;20048;-69
2022/10/04 12:16:33;;;;;;;3.13;1.38;;;18.30;99.90;;;;;;4914315;29;20494;-68
2022/10/04 12:19:14;;;;;;;3.35;1.45;;;18.20;99.90;;;;;;4929080;28;20077;-68
2022/10/04 12:22:21;;;;;;;4.95;1.67;;;18.00;99.90;;;;;;4972317;28;20046;-69
2022/10/04 12:24:50;;;;;;;3.80;1.20;;;17.90;99.90;;;;;;4952931;29;20039;-68
2022/10/04 12:27:27;;;;;;;2.60;1.27;;;17.80;99.90;;;;;;4952755;29;20055;-69
2022/10/04 12:30:20;;;;;;;1.92;1.10;;;17.70;99.90;;;;;;4952483;28;20556;-69
2022/10/04 12:32:55;;;;;;;2.08;1.15;;;17.80;99.90;;;;;;4952663;29;20031;-68
2022/10/04 12:36:04;;;;;;;2.83;1.15;;;17.80;99.90;;;;;;4969194;28;20069;-69
2022/10/04 12:38:51;;;;;;;2.28;1.30;;;17.80;99.90;;;;;;5011041;28;20052;-69
2022/10/04 12:41:42;;;;;;;2.22;1.23;;;17.90;99.90;;;;;;5010578;28;20049;-68
2022/10/04 12:44:44;;;;;;;3.67;1.50;;;18.00;99.90;;;;;;5010640;28;20499;-69
2022/10/04 12:47:40;;;;;;;3.00;1.10;;;18.10;99.90;;;;;;5011044;28;20037;-68
2022/10/04 12:50:48;;;;;;;2.97;1.60;;;18.10;99.90;;;;;;5010701;28;20069;-69
2022/10/04 12:53:33;;;;;;;3.17;1.35;;;18.20;99.90;;;;;;5010433;28;20096;-68
2022/10/04 12:56:12;;;;;;;3.72;1.15;;;18.20;99.90;;;;;;5010661;28;20070;-68
2022/10/04 12:59:08;;;;;;;5.75;1.50;;;18.20;99.90;;;;;;4998809;28;20121;-69
2022/10/04 13:02:04;;;;;;;3.13;1.25;;;18.20;99.90;;;;;;5009346;28;20128;-69
2022/10/04 13:05:05;;;;;;;2.30;1.23;;;18.10;99.90;;;;;;5031740;28;20452;-69
2022/10/04 13:07:38;;;;;;;2.42;1.48;;;18.20;99.90;;;;;;5041993;28;20049;-68
2022/10/04 13:10:22;;;;;;;4.93;2.38;;;18.20;99.90;;;;;;5034832;28;20053;-69
2022/10/04 13:13:00;;;;;;;2.17;1.30;;;18.20;99.90;;;;;;5031542;28;20036;-68
2022/10/04 13:15:30;;;;;;;5.68;1.55;;;18.00;99.90;;;;;;5030939;28;20029;-69
2022/10/04 13:17:58;;;;;;;2.30;1.40;;;17.90;99.90;;;;;;5031820;28;20028;-68
2022/10/04 13:20:53;;;;;;;2.83;1.27;;;17.90;99.90;;;;;;5031445;28;20037;-68
2022/10/04 13:23:47;;;;;;;3.33;1.50;;;17.80;99.90;;;;;;5032168;28;20030;-68
2022/10/04 13:26:49;;;;;;;2.92;1.98;;;17.80;99.90;;;;;;5032139;28;20033;-69
2022/10/04 13:29:28;;;;;;;4.28;1.58;;;17.80;99.90;;;;;;4952277;28;20536;-69
2022/10/04 13:32:14;;;;;;;2.90;1.45;;;17.80;99.90;;;;;;4951552;29;20509;-69
2022/10/04 13:34:48;;;;;;;2.88;1.50;;;17.80;99.90;;;;;;4957739;28;20046;-70
2022/10/04 13:37:14;;;;;;;4.28;0.95;;;17.90;99.90;;;;;;4957885;29;20044;-69
2022/10/04 13:39:42;;;;;;;2.67;1.20;;;17.90;99.90;;;;;;4958223;28;20473;-68
2022/10/04 13:42:30;;;;;;;1.17;0.88;;;17.80;99.90;;;;;;4958425;29;20047;-68
2022/10/04 13:45:10;;;;;;;2.78;1.27;;;17.90;99.90;;;;;;4958077;28;20494;-68
2022/10/04 13:47:43;;;;;;;3.95;1.25;;;17.90;99.90;;;;;;4957523;29;20027;-68
2022/10/04 13:50:28;;;;;;;4.18;1.52;;;17.90;99.90;;;;;;4958023;29;20094;-69
2022/10/04 13:56:35;;;;;;;2.97;2.08;;;17.90;99.90;;;;;;4957928;28;20097;-68
2022/10/04 13:59:07;;;;;;;7.57;2.25;;;17.80;99.90;;;;;;4957963;29;20119;-67
2022/10/04 14:01:55;;;;;;;6.32;2.33;;;17.90;99.90;;;;;;4943140;29;20461;-68
2022/10/04 14:04:43;;;;;;;4.25;1.58;;;17.80;99.90;;;;;;5034486;28;20492;-66